createdAt,value
2018-03-07T00:00:25.545Z,37.80
2018-03-07T00:02:54.142Z,38.33
2018-03-07T00:05:22.796Z,37.13
2018-03-07T00:07:51.365Z,38.77
2018-03-07T00:10:20.713Z,37.97
2018-03-07T00:12:49.291Z,37.87
2018-03-07T00:15:17.924Z,38.87
2018-03-07T00:17:46.494Z,39.63
2018-03-07T00:20:15.107Z,40.17
2018-03-07T00:22:44.484Z,40.27
2018-03-07T00:25:13.060Z,38.80
2018-03-07T00:27:41.630Z,39.33
2018-03-07T00:30:10.199Z,39.57
2018-03-07T00:32:38.809Z,38.97
2018-03-07T00:35:07.565Z,37.70
2018-03-07T00:37:36.134Z,34.90
2018-03-07T00:40:05.506Z,40.33
2018-03-07T00:42:34.091Z,36.97
2018-03-07T00:45:02.644Z,36.17
2018-03-07T00:47:31.206Z,37.73
2018-03-07T00:49:59.809Z,36.23
2018-03-07T00:52:28.400Z,36.47
2018-03-07T00:54:56.997Z,35.13
2018-03-07T00:57:25.564Z,35.40
2018-03-07T00:59:54.132Z,35.20
2018-03-07T01:02:22.719Z,37.13
2018-03-07T01:04:51.272Z,35.37
2018-03-07T01:07:19.835Z,33.13
2018-03-07T01:09:48.410Z,34.53
2018-03-07T01:12:16.988Z,34.83
2018-03-07T01:14:45.561Z,34.63
2018-03-07T01:17:14.147Z,36.33
2018-03-07T01:19:42.684Z,35.23
2018-03-07T01:22:11.212Z,40.97
2018-03-07T01:24:39.807Z,41.10
2018-03-07T01:27:08.407Z,39.97
2018-03-07T01:29:36.987Z,40.20
2018-03-07T01:32:05.593Z,40.13
2018-03-07T01:34:34.169Z,44.43
2018-03-07T01:37:02.786Z,40.90
2018-03-07T01:39:31.359Z,44.20
2018-03-07T01:41:59.954Z,42.43
2018-03-07T01:44:28.557Z,47.43
2018-03-07T01:46:57.132Z,40.87
2018-03-07T01:49:25.732Z,42.97
2018-03-07T01:52:01.811Z,44.50
2018-03-07T01:54:30.391Z,42.50
2018-03-07T01:56:59.741Z,43.67
2018-03-07T01:59:28.338Z,43.50
2018-03-07T02:01:56.927Z,46.57
2018-03-07T02:04:25.491Z,45.43
2018-03-07T02:06:54.066Z,45.90
2018-03-07T02:09:22.676Z,45.37
2018-03-07T02:11:51.251Z,42.77
2018-03-07T02:14:19.828Z,44.63
2018-03-07T02:16:48.398Z,42.13
2018-03-07T02:19:16.755Z,44.10
2018-03-07T02:21:46.119Z,41.10
2018-03-07T02:24:14.684Z,45.90
2018-03-07T02:26:43.274Z,45.97
2018-03-07T02:29:11.867Z,46.40
2018-03-07T02:31:40.473Z,46.37
2018-03-07T02:34:09.020Z,44.73
2018-03-07T02:36:37.566Z,45.77
2018-03-07T02:39:05.844Z,45.23
2018-03-07T02:41:34.414Z,47.53
2018-03-07T02:44:02.948Z,45.20
2018-03-07T02:46:31.498Z,42.73
2018-03-07T02:49:00.024Z,43.50
2018-03-07T02:51:28.633Z,41.23
2018-03-07T02:53:57.196Z,41.43
2018-03-07T02:56:25.969Z,40.33
2018-03-07T02:58:55.341Z,41.90
2018-03-07T03:01:23.901Z,41.47
2018-03-07T03:03:52.523Z,43.83
2018-03-07T03:06:21.088Z,41.17
2018-03-07T03:08:49.687Z,40.77
2018-03-07T03:11:18.287Z,42.20
2018-03-07T03:13:46.849Z,44.60
2018-03-07T03:16:15.415Z,45.03
2018-03-07T03:18:43.946Z,40.70
2018-03-07T03:21:12.536Z,44.87
2018-03-07T03:23:41.115Z,46.30
2018-03-07T03:26:09.660Z,42.47
2018-03-07T03:28:38.256Z,38.80
2018-03-07T03:31:06.815Z,41.37
2018-03-07T03:33:35.400Z,45.97
2018-03-07T03:36:03.991Z,44.63
2018-03-07T03:38:32.571Z,43.97
2018-03-07T03:41:01.152Z,44.73
2018-03-07T03:43:29.728Z,43.13
2018-03-07T03:45:58.339Z,47.73
2018-03-07T03:48:26.936Z,43.87
2018-03-07T03:50:55.487Z,45.30
2018-03-07T03:53:24.057Z,45.87
2018-03-07T03:55:52.619Z,44.93
2018-03-07T03:58:21.210Z,47.33
2018-03-07T04:00:49.822Z,46.67
2018-03-07T04:03:18.407Z,46.67
2018-03-07T04:05:47.837Z,42.77
2018-03-07T04:08:16.394Z,44.90
2018-03-07T04:10:44.984Z,46.23
2018-03-07T04:13:14.348Z,45.50
2018-03-07T04:15:42.931Z,44.33
2018-03-07T04:18:11.496Z,46.20
2018-03-07T04:20:40.035Z,44.90
2018-03-07T04:23:08.634Z,42.50
2018-03-07T04:25:37.975Z,46.30
2018-03-07T04:28:06.531Z,48.60
2018-03-07T04:30:35.112Z,44.57
2018-03-07T04:33:04.410Z,44.53
2018-03-07T04:35:33.751Z,47.20
2018-03-07T04:38:03.101Z,44.50
2018-03-07T04:40:31.961Z,44.07
2018-03-07T04:43:00.558Z,45.97
2018-03-07T04:45:29.140Z,44.87
2018-03-07T04:47:57.716Z,46.07
2018-03-07T04:50:26.306Z,45.03
2018-03-07T04:52:54.942Z,47.63
2018-03-07T04:55:23.709Z,45.33
2018-03-07T04:57:52.281Z,45.33
2018-03-07T05:00:20.881Z,48.67
2018-03-07T05:02:49.487Z,44.93
2018-03-07T05:05:18.204Z,47.57
2018-03-07T05:07:46.805Z,47.40
2018-03-07T05:10:15.327Z,46.43
2018-03-07T05:12:43.904Z,45.07
2018-03-07T05:15:12.470Z,43.27
2018-03-07T05:17:40.843Z,41.73
2018-03-07T05:20:09.418Z,41.00
2018-03-07T05:22:37.972Z,40.10
2018-03-07T05:25:07.330Z,36.60
2018-03-07T05:27:35.921Z,37.67
2018-03-07T05:30:04.223Z,35.77
2018-03-07T05:32:32.791Z,38.00
2018-03-07T05:35:01.308Z,37.77
2018-03-07T05:37:29.874Z,35.30
2018-03-07T05:39:58.481Z,34.73
2018-03-07T05:42:27.003Z,34.77
2018-03-07T05:44:55.587Z,38.13
2018-03-07T05:47:24.144Z,36.17
2018-03-07T05:49:53.500Z,34.77
2018-03-07T05:52:22.106Z,34.10
2018-03-07T05:54:50.672Z,33.40
2018-03-07T05:57:19.245Z,33.50
2018-03-07T05:59:47.784Z,33.57
2018-03-07T06:02:16.391Z,33.03
2018-03-07T06:04:44.994Z,33.03
2018-03-07T06:07:13.587Z,31.90
2018-03-07T06:09:42.170Z,34.07
2018-03-07T06:12:10.808Z,33.33
2018-03-07T06:14:39.382Z,34.37
2018-03-07T06:17:07.979Z,33.73
2018-03-07T06:19:36.605Z,33.53
2018-03-07T06:22:05.179Z,33.70
2018-03-07T06:24:34.520Z,32.57
2018-03-07T06:27:03.075Z,34.20
2018-03-07T06:29:31.640Z,33.57
2018-03-07T06:32:01.011Z,32.17
2018-03-07T06:34:29.597Z,30.97
2018-03-07T06:36:58.208Z,31.43
2018-03-07T06:39:26.790Z,30.83
2018-03-07T06:41:55.381Z,31.23
2018-03-07T06:44:23.957Z,31.13
2018-03-07T06:46:52.541Z,32.47
2018-03-07T06:49:21.128Z,34.10
2018-03-07T06:51:49.709Z,161.07
2018-03-07T06:54:18.318Z,757.63
2018-03-07T06:56:46.905Z,446.83
2018-03-07T06:59:15.457Z,186.03
2018-03-07T07:01:44.085Z,105.40
2018-03-07T07:04:13.428Z,74.60
2018-03-07T07:06:42.057Z,50.43
2018-03-07T07:09:10.622Z,61.10
2018-03-07T07:11:39.151Z,57.63
2018-03-07T07:14:07.735Z,48.57
2018-03-07T07:16:37.072Z,54.53
2018-03-07T07:19:05.670Z,36.07
2018-03-07T07:21:34.281Z,63.40
2018-03-07T07:24:02.857Z,65.10
2018-03-07T07:26:31.470Z,100.87
2018-03-07T07:29:01.044Z,44.43
2018-03-07T07:31:29.684Z,70.47
2018-03-07T07:33:58.298Z,43.47
2018-03-07T07:36:26.918Z,52.27
2018-03-07T07:38:55.542Z,35.17
2018-03-07T07:41:23.830Z,47.40
2018-03-07T07:43:52.407Z,80.60
2018-03-07T07:46:21.740Z,56.97
2018-03-07T07:48:50.194Z,47.97
2018-03-07T07:51:19.370Z,33.20
2018-03-07T07:53:47.938Z,37.07
2018-03-07T07:56:17.284Z,50.60
2018-03-07T07:58:46.610Z,29.43
2018-03-07T08:01:15.187Z,32.97
2018-03-07T08:03:43.742Z,26.40
2018-03-07T08:06:12.361Z,27.63
2018-03-07T08:08:40.949Z,24.20
2018-03-07T08:11:10.279Z,24.43
2018-03-07T08:13:38.820Z,30.07
2018-03-07T08:16:08.185Z,30.73
2018-03-07T08:18:36.799Z,28.07
2018-03-07T08:21:05.364Z,27.17
2018-03-07T08:23:33.910Z,25.30
2018-03-07T08:26:02.454Z,25.23
2018-03-07T08:28:31.074Z,26.07
2018-03-07T08:30:59.656Z,25.70
2018-03-07T08:33:28.455Z,26.97
2018-03-07T08:35:57.214Z,26.40
2018-03-07T08:38:25.834Z,26.07
2018-03-07T08:40:54.399Z,24.90
2018-03-07T08:43:23.939Z,23.73
2018-03-07T08:45:52.557Z,23.83
2018-03-07T08:48:24.401Z,24.30
2018-03-07T08:50:52.991Z,25.37
2018-03-07T08:53:21.585Z,24.53
2018-03-07T08:55:50.187Z,23.43
2018-03-07T08:58:20.817Z,22.53
2018-03-07T09:00:49.393Z,21.60
2018-03-07T09:03:17.982Z,22.57
2018-03-07T09:05:46.577Z,23.73
2018-03-07T09:08:15.144Z,21.83
2018-03-07T09:10:50.712Z,17.97
2018-03-07T09:13:19.302Z,18.93
2018-03-07T09:15:47.872Z,17.10
2018-03-07T09:18:16.416Z,16.80
2018-03-07T09:20:45.002Z,18.03
2018-03-07T09:23:13.533Z,17.87
2018-03-07T09:25:42.115Z,16.63
2018-03-07T09:28:10.686Z,17.73
2018-03-07T09:30:39.254Z,16.80
2018-03-07T09:33:07.857Z,16.63
2018-03-07T09:35:36.506Z,18.57
2018-03-07T09:38:04.772Z,16.37
2018-03-07T09:40:33.349Z,16.07
2018-03-07T09:43:02.718Z,16.57
2018-03-07T09:45:31.276Z,16.60
2018-03-07T09:47:59.834Z,16.70
2018-03-07T09:50:28.441Z,15.87
2018-03-07T09:52:57.001Z,17.70
2018-03-07T09:55:25.586Z,16.20
2018-03-07T09:57:54.169Z,16.37
2018-03-07T10:00:22.735Z,16.73
2018-03-07T10:02:51.341Z,16.20
2018-03-07T10:05:19.935Z,16.07
2018-03-07T10:07:48.526Z,16.40
2018-03-07T10:10:17.938Z,16.50
2018-03-07T10:12:47.278Z,15.53
2018-03-07T10:15:15.860Z,14.07
2018-03-07T10:17:44.456Z,14.87
2018-03-07T10:20:13.018Z,15.03
2018-03-07T10:22:43.679Z,14.97
2018-03-07T10:25:12.262Z,626.97
2018-03-07T10:27:40.880Z,311.53
2018-03-07T10:30:09.494Z,159.37
2018-03-07T10:32:38.106Z,65.07
2018-03-07T10:35:06.403Z,31.20
2018-03-07T10:37:35.046Z,60.77
2018-03-07T10:40:03.686Z,36.83
2018-03-07T10:42:32.301Z,18.87
2018-03-07T10:45:00.865Z,16.87
2018-03-07T10:47:29.476Z,15.23
2018-03-07T10:49:58.041Z,21.37
2018-03-07T10:52:26.633Z,14.63
2018-03-07T10:54:55.198Z,9.63
2018-03-07T10:57:23.822Z,9.57
2018-03-07T10:59:52.402Z,8.77
2018-03-07T11:02:20.977Z,8.13
2018-03-07T11:04:49.574Z,8.67
2018-03-07T11:07:18.153Z,7.00
2018-03-07T11:09:46.737Z,7.70
2018-03-07T11:12:16.291Z,6.87
2018-03-07T11:14:45.021Z,8.03
2018-03-07T11:17:13.577Z,6.60
2018-03-07T11:19:42.159Z,6.30
2018-03-07T11:22:10.716Z,6.10
2018-03-07T11:24:39.265Z,5.60
2018-03-07T11:27:07.869Z,5.53
2018-03-07T11:29:36.388Z,5.83
2018-03-07T11:32:05.735Z,5.80
2018-03-07T11:34:34.310Z,6.00
2018-03-07T11:37:02.902Z,6.43
2018-03-07T11:39:31.483Z,5.90
2018-03-07T11:42:00.089Z,5.73
2018-03-07T11:44:28.698Z,5.40
2018-03-07T11:46:57.306Z,4.73
2018-03-07T11:49:26.688Z,7.23
2018-03-07T11:51:55.284Z,32.63
2018-03-07T11:54:23.875Z,9.57
2018-03-07T11:56:53.245Z,6.17
2018-03-07T11:59:21.855Z,6.20
2018-03-07T12:01:50.431Z,5.03
2018-03-07T12:04:19.009Z,10.17
2018-03-07T12:06:47.585Z,6.53
2018-03-07T12:09:16.147Z,5.37
2018-03-07T12:11:44.736Z,5.00
2018-03-07T12:14:13.289Z,5.20
2018-03-07T12:16:42.629Z,4.47
2018-03-07T12:19:11.196Z,5.00
2018-03-07T12:21:39.729Z,4.60
2018-03-07T12:24:08.286Z,5.10
2018-03-07T12:26:37.643Z,5.00
2018-03-07T12:29:06.202Z,5.17
2018-03-07T12:31:34.781Z,4.90
2018-03-07T12:34:03.412Z,5.07
2018-03-07T12:36:32.722Z,5.00
2018-03-07T12:39:02.073Z,5.23
2018-03-07T12:41:30.637Z,5.30
2018-03-07T12:43:59.246Z,4.67
2018-03-07T12:46:27.845Z,3.60
2018-03-07T12:48:56.400Z,3.80
2018-03-07T12:51:25.106Z,4.27
2018-03-07T12:53:53.643Z,5.00
2018-03-07T12:56:23.000Z,4.50
2018-03-07T12:58:51.548Z,5.23
2018-03-07T13:01:20.126Z,5.67
2018-03-07T13:03:48.717Z,6.63
2018-03-07T13:06:17.269Z,6.97
2018-03-07T13:08:45.870Z,7.67
2018-03-07T13:11:16.034Z,7.87
2018-03-07T13:13:48.156Z,6.07
2018-03-07T13:16:17.500Z,4.60
2018-03-07T13:18:46.095Z,8.40
2018-03-07T13:21:14.659Z,6.20
2018-03-07T13:23:43.221Z,4.07
2018-03-07T13:26:12.574Z,4.40
2018-03-07T13:28:41.181Z,3.50
2018-03-07T13:31:09.718Z,2.80
2018-03-07T13:33:39.777Z,3.37
2018-03-07T13:36:08.349Z,3.50
2018-03-07T13:38:36.910Z,12.23
2018-03-07T13:41:05.840Z,3.83
2018-03-07T13:43:34.437Z,2.57
2018-03-07T13:46:03.039Z,3.53
2018-03-07T13:48:56.067Z,4.10
2018-03-07T13:51:24.683Z,5.13
2018-03-07T13:53:53.466Z,3.83
2018-03-07T13:56:22.181Z,2.07
2018-03-07T13:58:51.620Z,2.73
2018-03-07T14:01:20.285Z,4.03
2018-03-07T14:03:49.629Z,3.53
2018-03-07T14:06:17.947Z,16.43
2018-03-07T14:08:46.513Z,5.20
2018-03-07T14:11:15.120Z,3.13
2018-03-07T14:13:44.456Z,2.20
2018-03-07T14:16:13.039Z,2.23
2018-03-07T14:18:41.645Z,6.00
2018-03-07T14:21:10.224Z,3.20
2018-03-07T14:23:38.789Z,9.47
2018-03-07T14:26:07.353Z,4.50
2018-03-07T14:28:35.930Z,3.10
2018-03-07T14:31:04.504Z,2.17
2018-03-07T14:33:33.113Z,1.90
2018-03-07T14:36:01.680Z,2.00
2018-03-07T14:38:30.246Z,1.80
2018-03-07T14:40:59.016Z,1.90
2018-03-07T14:43:27.718Z,1.80
2018-03-07T14:45:57.112Z,1.50
2018-03-07T14:48:25.703Z,1.80
2018-03-07T14:50:54.315Z,1.70
2018-03-07T14:53:22.896Z,1.63
2018-03-07T14:55:51.464Z,1.50
2018-03-07T14:58:20.027Z,1.77
2018-03-07T15:00:48.594Z,1.50
2018-03-07T15:03:17.954Z,1.80
2018-03-07T15:05:46.507Z,1.90
2018-03-07T15:08:15.101Z,2.27
2018-03-07T15:10:43.665Z,2.30
2018-03-07T15:13:12.713Z,2.57
2018-03-07T15:15:41.315Z,1.90
2018-03-07T15:18:09.857Z,1.97
2018-03-07T15:20:38.487Z,1.57
2018-03-07T15:23:07.051Z,2.10
2018-03-07T15:25:35.702Z,1.90
2018-03-07T15:28:04.319Z,1.73
2018-03-07T15:30:32.920Z,1.40
2018-03-07T15:33:01.481Z,1.73
2018-03-07T15:35:30.078Z,1.77
2018-03-07T15:37:58.670Z,1.63
2018-03-07T15:40:27.242Z,1.80
2018-03-07T15:42:55.825Z,1.87
2018-03-07T15:45:24.314Z,1.50
2018-03-07T15:47:52.931Z,1.80
2018-03-07T15:50:21.612Z,1.90
2018-03-07T15:52:50.221Z,1.63
2018-03-07T15:55:18.793Z,2.10
2018-03-07T15:58:01.033Z,2.10
2018-03-07T16:00:30.357Z,2.40
2018-03-07T16:02:58.908Z,1.93
2018-03-07T16:05:27.526Z,2.10
2018-03-07T16:07:56.096Z,1.80
2018-03-07T16:10:25.476Z,2.20
2018-03-07T16:12:54.059Z,2.63
2018-03-07T16:15:22.654Z,2.27
2018-03-07T16:17:51.193Z,2.60
2018-03-07T16:20:19.797Z,2.80
2018-03-07T16:22:48.357Z,2.40
2018-03-07T16:25:16.908Z,2.00
2018-03-07T16:27:46.227Z,1.90
2018-03-07T16:30:15.569Z,2.17
2018-03-07T16:32:44.141Z,3.27
2018-03-07T16:35:12.712Z,2.07
2018-03-07T16:37:41.278Z,3.80
2018-03-07T16:40:10.616Z,2.10
2018-03-07T16:42:39.206Z,1.90
2018-03-07T16:45:07.851Z,1.97
2018-03-07T16:47:37.173Z,2.67
2018-03-07T16:50:05.839Z,2.20
2018-03-07T16:52:35.238Z,2.30
2018-03-07T16:55:03.862Z,1.60
2018-03-07T16:57:32.426Z,1.53
2018-03-07T17:00:01.751Z,1.70
2018-03-07T17:02:30.330Z,1.80
2018-03-07T17:04:58.919Z,1.80
2018-03-07T17:07:27.542Z,1.97
2018-03-07T17:09:56.109Z,1.90
2018-03-07T17:12:24.693Z,2.03
2018-03-07T17:14:53.278Z,2.30
2018-03-07T17:17:21.889Z,2.10
2018-03-07T17:19:50.818Z,2.27
2018-03-07T17:22:20.171Z,2.50
2018-03-07T17:24:48.758Z,2.40
2018-03-07T17:27:17.308Z,3.80
2018-03-07T17:29:46.648Z,3.07
2018-03-07T17:32:15.983Z,3.90
2018-03-07T17:34:44.561Z,5.73
2018-03-07T17:37:13.131Z,3.10
2018-03-07T17:39:42.036Z,2.00
2018-03-07T17:42:10.620Z,1.60
2018-03-07T17:44:39.526Z,1.60
2018-03-07T17:47:08.099Z,1.73
2018-03-07T17:49:36.617Z,1.67
2018-03-07T17:52:05.953Z,1.70
2018-03-07T17:54:34.468Z,2.50
2018-03-07T17:57:02.904Z,2.40
2018-03-07T17:59:31.353Z,2.90
2018-03-07T18:01:59.932Z,348.77
2018-03-07T18:04:28.495Z,233.37
2018-03-07T18:06:56.748Z,49.97
2018-03-07T18:09:25.373Z,114.17
2018-03-07T18:11:53.948Z,26.30
2018-03-07T18:14:22.625Z,61.63
2018-03-07T18:16:51.431Z,15.97
2018-03-07T18:19:20.120Z,8.03
2018-03-07T18:21:49.522Z,6.90
2018-03-07T18:24:18.182Z,5.10
2018-03-07T18:26:46.787Z,4.90
2018-03-07T18:29:15.457Z,5.10
2018-03-07T18:31:44.587Z,25.20
2018-03-07T18:34:13.253Z,14.03
2018-03-07T18:36:41.867Z,22.53
2018-03-07T18:39:10.442Z,5.93
2018-03-07T18:41:39.013Z,5.20
2018-03-07T18:44:08.307Z,5.10
2018-03-07T18:46:37.167Z,6.50
2018-03-07T18:49:05.907Z,3.40
2018-03-07T18:51:35.053Z,3.77
2018-03-07T18:54:03.847Z,4.53
2018-03-07T18:56:32.564Z,6.13
2018-03-07T18:59:01.412Z,6.37
2018-03-07T19:01:30.482Z,5.80
2018-03-07T19:03:59.466Z,6.37
2018-03-07T19:06:28.311Z,7.30
2018-03-07T19:08:58.002Z,5.10
2018-03-07T19:11:26.857Z,3.80
2018-03-07T19:13:55.675Z,4.60
2018-03-07T19:16:24.486Z,6.33
2018-03-07T19:18:53.122Z,16.67
2018-03-07T19:21:21.742Z,16.23
2018-03-07T19:23:50.376Z,25.90
2018-03-07T19:26:19.668Z,12.60
2018-03-07T19:28:50.058Z,8.83
2018-03-07T19:31:18.728Z,20.53
2018-03-07T19:33:47.789Z,11.43
2018-03-07T19:36:16.646Z,6.93
2018-03-07T19:38:45.328Z,5.57
2018-03-07T19:41:14.024Z,4.53
2018-03-07T19:43:42.632Z,4.07
2018-03-07T19:46:11.196Z,4.30
2018-03-07T19:48:39.835Z,3.67
2018-03-07T19:51:08.523Z,3.80
2018-03-07T19:53:37.099Z,3.47
2018-03-07T19:56:05.733Z,3.73
2018-03-07T19:58:34.363Z,4.37
2018-03-07T20:01:02.998Z,3.70
2018-03-07T20:03:31.593Z,3.27
2018-03-07T20:06:00.674Z,3.40
2018-03-07T20:08:29.272Z,3.97
2018-03-07T20:10:57.919Z,3.93
2018-03-07T20:13:26.482Z,3.80
2018-03-07T20:15:55.077Z,4.07
2018-03-07T20:18:24.413Z,4.33
2018-03-07T20:20:53.004Z,4.40
2018-03-07T20:23:22.407Z,4.57
2018-03-07T20:25:50.861Z,4.30
2018-03-07T20:28:20.210Z,4.40
2018-03-07T20:30:48.724Z,4.67
2018-03-07T20:33:17.338Z,4.10
2018-03-07T20:35:46.695Z,4.83
2018-03-07T20:38:38.693Z,4.37
2018-03-07T20:41:08.023Z,4.33
2018-03-07T20:43:36.608Z,4.30
2018-03-07T20:46:05.194Z,4.80
2018-03-07T20:48:33.721Z,4.90
2018-03-07T20:51:02.305Z,4.73
2018-03-07T20:53:31.636Z,6.33
2018-03-07T20:56:01.012Z,5.17
2018-03-07T20:58:31.539Z,4.70
2018-03-07T21:01:00.121Z,4.57
2018-03-07T21:03:28.739Z,4.57
2018-03-07T21:05:58.074Z,4.53
2018-03-07T21:08:26.673Z,4.37
2018-03-07T21:10:55.261Z,4.13
2018-03-07T21:13:23.858Z,4.10
2018-03-07T21:15:52.388Z,4.00
2018-03-07T21:18:21.729Z,3.73
2018-03-07T21:20:50.321Z,3.70
2018-03-07T21:23:18.907Z,4.30
2018-03-07T21:25:47.481Z,4.13
2018-03-07T21:28:16.045Z,4.00
2018-03-07T21:30:44.629Z,3.70
2018-03-07T21:33:13.966Z,3.70
2018-03-07T21:35:42.541Z,4.23
2018-03-07T21:38:11.150Z,4.00
2018-03-07T21:40:39.790Z,4.20
2018-03-07T21:43:08.552Z,3.90
2018-03-07T21:45:37.148Z,4.00
2018-03-07T21:48:05.808Z,5.17
2018-03-07T21:50:34.388Z,4.63
2018-03-07T21:53:02.888Z,5.20
2018-03-07T21:55:31.485Z,4.53
2018-03-07T21:58:00.096Z,4.83
2018-03-07T22:00:30.752Z,5.57
2018-03-07T22:02:59.344Z,5.10
2018-03-07T22:05:27.925Z,5.40
2018-03-07T22:07:56.449Z,5.77
2018-03-07T22:10:24.983Z,4.67
2018-03-07T22:12:53.539Z,5.10
2018-03-07T22:15:22.155Z,5.50
2018-03-07T22:17:50.740Z,4.77
2018-03-07T22:20:19.297Z,5.67
2018-03-07T22:22:47.880Z,4.70
2018-03-07T22:25:17.431Z,5.13
2018-03-07T22:27:46.038Z,4.70
2018-03-07T22:30:15.029Z,5.57
2018-03-07T22:32:46.920Z,4.97
2018-03-07T22:35:16.175Z,5.13
2018-03-07T22:37:44.774Z,5.30
2018-03-07T22:40:13.332Z,5.83
2018-03-07T22:42:42.644Z,5.93
2018-03-07T22:45:11.216Z,5.93
2018-03-07T22:47:40.582Z,6.43
2018-03-07T22:50:09.147Z,6.23
2018-03-07T22:52:37.767Z,5.63
2018-03-07T22:55:06.337Z,6.10
2018-03-07T22:57:35.271Z,6.37
2018-03-07T23:00:03.854Z,6.37
2018-03-07T23:02:33.219Z,6.07
2018-03-07T23:05:01.801Z,6.90
2018-03-07T23:07:32.266Z,7.30
2018-03-07T23:10:00.868Z,7.30
2018-03-07T23:12:30.209Z,7.83
2018-03-07T23:14:58.821Z,8.20
2018-03-07T23:17:27.655Z,8.40
2018-03-07T23:19:56.288Z,9.20
2018-03-07T23:22:24.892Z,9.80
2018-03-07T23:24:53.485Z,9.70
2018-03-07T23:27:26.674Z,10.57
2018-03-07T23:29:55.283Z,9.97
2018-03-07T23:32:23.876Z,10.37
2018-03-07T23:34:54.192Z,10.50
2018-03-07T23:37:23.531Z,11.63
2018-03-07T23:39:52.144Z,10.93
2018-03-07T23:42:20.738Z,11.33
2018-03-07T23:44:49.171Z,11.43
2018-03-07T23:47:17.726Z,10.07
2018-03-07T23:49:46.320Z,10.43
2018-03-07T23:52:14.947Z,10.57
2018-03-07T23:54:51.066Z,10.13
2018-03-07T23:57:19.650Z,12.10
2018-03-07T23:59:48.263Z,11.17
